createdAt,value
2022-08-27T00:00:53.216Z,13.23
2022-08-27T00:03:23.440Z,12.47
2022-08-27T00:05:52.105Z,12.93
2022-08-27T00:08:20.378Z,12.53
2022-08-27T00:10:48.673Z,12.30
2022-08-27T00:13:17.371Z,12.60
2022-08-27T00:15:46.984Z,12.80
2022-08-27T00:18:20.859Z,12.50
2022-08-27T00:20:53.194Z,11.23
2022-08-27T00:23:21.762Z,12.03
2022-08-27T00:25:50.168Z,11.97
2022-08-27T00:28:19.048Z,11.43
2022-08-27T00:30:47.641Z,11.80
2022-08-27T00:33:19.805Z,11.23
2022-08-27T00:35:48.069Z,11.17
2022-08-27T00:38:16.497Z,11.53
2022-08-27T00:40:45.835Z,11.90
2022-08-27T00:43:24.497Z,11.57
2022-08-27T00:45:57.373Z,11.53
2022-08-27T00:48:35.573Z,11.60
2022-08-27T00:51:08.917Z,11.47
2022-08-27T00:53:38.866Z,10.87
2022-08-27T00:56:12.069Z,10.97
2022-08-27T00:58:43.660Z,10.60
2022-08-27T01:01:18.232Z,10.07
2022-08-27T01:03:53.019Z,10.20
2022-08-27T01:06:24.638Z,10.33
2022-08-27T01:08:59.049Z,10.57
2022-08-27T01:11:28.149Z,10.00
2022-08-27T01:13:59.611Z,10.33
2022-08-27T01:16:37.333Z,9.60
2022-08-27T01:19:12.452Z,9.97
2022-08-27T01:21:49.814Z,9.93
2022-08-27T01:24:37.081Z,10.53
2022-08-27T01:27:13.426Z,9.47
2022-08-27T01:29:43.719Z,10.00
2022-08-27T01:32:15.972Z,9.17
2022-08-27T01:34:44.764Z,10.27
2022-08-27T01:37:15.818Z,9.53
2022-08-27T01:39:46.074Z,9.80
2022-08-27T01:42:19.397Z,9.00
2022-08-27T01:44:52.133Z,9.30
2022-08-27T01:47:23.736Z,8.60
2022-08-27T01:49:59.298Z,8.17
2022-08-27T01:52:30.538Z,8.60
2022-08-27T01:55:01.171Z,9.37
2022-08-27T01:57:32.547Z,8.60
2022-08-27T02:00:00.737Z,8.53
2022-08-27T02:02:29.277Z,8.77
2022-08-27T02:04:57.784Z,9.10
2022-08-27T02:07:26.182Z,8.90
2022-08-27T02:09:54.727Z,9.40
2022-08-27T02:12:24.611Z,8.93
2022-08-27T02:14:53.447Z,8.57
2022-08-27T02:17:24.422Z,8.97
2022-08-27T02:19:53.657Z,9.20
2022-08-27T02:22:24.757Z,9.03
2022-08-27T02:24:54.122Z,9.37
2022-08-27T02:27:24.304Z,9.27
2022-08-27T02:29:53.359Z,9.17
2022-08-27T02:32:32.180Z,8.43
2022-08-27T02:35:04.861Z,9.30
2022-08-27T02:37:34.157Z,9.07
2022-08-27T02:40:03.171Z,9.57
2022-08-27T02:42:33.079Z,9.27
2022-08-27T02:45:03.484Z,8.70
2022-08-27T02:47:31.807Z,9.47
2022-08-27T02:50:00.431Z,8.83
2022-08-27T02:52:29.771Z,9.50
2022-08-27T02:54:57.977Z,8.90
2022-08-27T02:57:27.408Z,9.13
2022-08-27T02:59:57.089Z,9.67
2022-08-27T03:02:25.904Z,9.63
2022-08-27T03:04:56.704Z,8.80
2022-08-27T03:07:25.699Z,9.20
2022-08-27T03:09:54.203Z,9.83
2022-08-27T03:12:22.917Z,9.20
2022-08-27T03:14:55.364Z,9.87
2022-08-27T03:17:42.504Z,9.50
2022-08-27T03:20:12.595Z,9.30
2022-08-27T03:22:42.397Z,8.60
2022-08-27T03:25:12.099Z,8.90
2022-08-27T03:27:40.487Z,8.77
2022-08-27T03:30:12.473Z,8.57
2022-08-27T03:32:42.552Z,9.27
2022-08-27T03:35:12.304Z,8.50
2022-08-27T03:37:41.375Z,8.77
2022-08-27T03:40:11.459Z,8.23
2022-08-27T03:42:42.688Z,8.60
2022-08-27T03:45:12.660Z,9.27
2022-08-27T03:47:42.326Z,8.27
2022-08-27T03:50:15.705Z,8.60
2022-08-27T03:52:44.474Z,9.13
2022-08-27T03:55:13.040Z,8.70
2022-08-27T03:57:41.610Z,8.40
2022-08-27T04:00:12.472Z,8.97
2022-08-27T04:02:44.364Z,8.87
2022-08-27T04:05:15.766Z,8.77
2022-08-27T04:07:45.541Z,9.23
2022-08-27T04:10:14.353Z,9.00
2022-08-27T04:12:43.668Z,10.00
2022-08-27T04:15:14.084Z,9.53
2022-08-27T04:17:44.945Z,10.23
2022-08-27T04:20:34.447Z,10.57
2022-08-27T04:23:02.726Z,10.90
2022-08-27T04:25:31.232Z,11.43
2022-08-27T04:28:00.225Z,11.23
2022-08-27T04:30:28.856Z,11.83
2022-08-27T04:32:58.788Z,11.67
2022-08-27T04:35:29.744Z,11.50
2022-08-27T04:37:59.270Z,11.47
2022-08-27T04:40:48.433Z,11.10
2022-08-27T04:43:17.700Z,11.67
2022-08-27T04:45:46.879Z,11.27
2022-08-27T04:48:18.982Z,11.70
2022-08-27T04:50:48.930Z,11.00
2022-08-27T04:53:20.702Z,10.87
2022-08-27T04:55:53.237Z,11.23
2022-08-27T04:58:26.392Z,9.90
2022-08-27T05:00:56.413Z,9.63
2022-08-27T05:03:26.877Z,10.13
2022-08-27T05:06:00.979Z,9.53
2022-08-27T05:08:31.795Z,9.83
2022-08-27T05:11:01.943Z,10.17
2022-08-27T05:13:31.415Z,9.97
2022-08-27T05:16:01.646Z,9.03
2022-08-27T05:18:36.383Z,9.33
2022-08-27T05:21:12.729Z,9.67
2022-08-27T05:23:41.525Z,9.40
2022-08-27T05:26:10.345Z,9.03
2022-08-27T05:28:39.140Z,9.67
2022-08-27T05:31:11.846Z,9.03
2022-08-27T05:33:43.860Z,9.63
2022-08-27T05:36:18.561Z,9.47
2022-08-27T05:38:47.189Z,9.50
2022-08-27T05:41:20.066Z,9.77
2022-08-27T05:43:50.565Z,9.33
2022-08-27T05:46:21.010Z,8.47
2022-08-27T05:48:51.878Z,8.30
2022-08-27T05:51:26.108Z,8.60
2022-08-27T05:53:57.796Z,8.87
2022-08-27T05:56:29.581Z,9.03
2022-08-27T05:59:17.994Z,8.00
2022-08-27T06:01:51.798Z,8.63
2022-08-27T06:04:23.780Z,8.07
2022-08-27T06:06:53.972Z,8.13
2022-08-27T06:09:24.429Z,7.37
2022-08-27T06:11:56.401Z,8.03
2022-08-27T06:14:26.933Z,7.87
2022-08-27T06:16:56.825Z,7.60
2022-08-27T06:19:26.760Z,7.57
2022-08-27T06:22:01.014Z,7.27
2022-08-27T06:24:39.538Z,7.37
2022-08-27T06:27:11.490Z,7.27
2022-08-27T06:29:42.281Z,7.37
2022-08-27T06:32:10.872Z,7.27
2022-08-27T06:34:41.244Z,7.30
2022-08-27T06:37:10.402Z,7.00
2022-08-27T06:39:40.607Z,7.20
2022-08-27T06:42:12.819Z,6.97
2022-08-27T06:44:43.071Z,6.43
2022-08-27T06:47:13.334Z,7.13
2022-08-27T06:49:46.235Z,6.80
2022-08-27T06:52:15.448Z,6.60
2022-08-27T06:54:45.337Z,6.40
2022-08-27T06:57:13.423Z,5.60
2022-08-27T06:59:41.877Z,5.60
2022-08-27T07:02:10.404Z,5.40
2022-08-27T07:04:38.992Z,5.60
2022-08-27T07:07:08.738Z,5.33
2022-08-27T07:09:37.167Z,5.50
2022-08-27T07:12:07.275Z,5.47
2022-08-27T07:15:15.579Z,4.63
2022-08-27T07:17:44.882Z,4.70
2022-08-27T07:20:14.621Z,5.00
2022-08-27T07:22:45.662Z,4.57
2022-08-27T07:25:19.871Z,3.85
2022-08-27T07:27:48.646Z,3.75
2022-08-27T07:30:18.786Z,3.90
2022-08-27T07:32:51.605Z,3.00
2022-08-27T07:35:20.361Z,3.50
2022-08-27T07:37:50.258Z,3.40
2022-08-27T07:40:19.111Z,3.28
2022-08-27T07:43:04.486Z,3.80
2022-08-27T07:45:32.701Z,4.03
2022-08-27T07:48:01.188Z,3.80
2022-08-27T07:50:30.689Z,3.30
2022-08-27T07:53:00.236Z,3.80
2022-08-27T07:55:29.108Z,3.67
2022-08-27T07:57:57.633Z,4.20
2022-08-27T08:00:25.863Z,3.70
2022-08-27T08:02:54.363Z,4.05
2022-08-27T08:05:22.989Z,3.50
2022-08-27T08:07:52.883Z,3.33
2022-08-27T08:10:23.607Z,3.50
2022-08-27T08:12:52.205Z,3.50
2022-08-27T08:15:21.447Z,3.10
2022-08-27T08:17:49.853Z,2.97
2022-08-27T08:20:27.476Z,2.70
2022-08-27T08:23:09.917Z,3.15
2022-08-27T08:25:41.311Z,2.55
2022-08-27T08:28:09.679Z,2.80
2022-08-27T08:30:38.361Z,2.25
2022-08-27T08:33:07.352Z,2.38
2022-08-27T08:35:40.928Z,3.00
2022-08-27T08:38:10.750Z,2.72
2022-08-27T08:40:43.419Z,2.65
2022-08-27T08:43:23.449Z,2.88
2022-08-27T08:45:53.321Z,2.65
2022-08-27T08:48:24.405Z,2.60
2022-08-27T08:51:00.698Z,2.72
2022-08-27T08:53:40.693Z,2.85
2022-08-27T08:56:16.661Z,2.53
2022-08-27T08:58:49.330Z,2.67
2022-08-27T09:01:21.059Z,2.90
2022-08-27T09:03:54.755Z,2.60
2022-08-27T09:06:35.187Z,2.60
2022-08-27T09:09:15.720Z,2.57
2022-08-27T09:11:55.158Z,3.00
2022-08-27T09:14:32.031Z,2.90
2022-08-27T09:17:01.957Z,2.90
2022-08-27T09:19:32.397Z,3.40
2022-08-27T09:22:05.236Z,3.22
2022-08-27T09:24:41.872Z,3.13
2022-08-27T09:27:15.121Z,3.17
2022-08-27T09:29:52.940Z,2.92
2022-08-27T09:32:27.223Z,3.13
2022-08-27T09:35:00.294Z,3.35
2022-08-27T09:37:34.153Z,3.33
2022-08-27T09:40:13.636Z,3.55
2022-08-27T09:42:55.006Z,4.10
2022-08-27T09:45:25.243Z,3.80
2022-08-27T09:47:55.948Z,3.60
2022-08-27T09:50:26.255Z,3.90
2022-08-27T09:52:57.095Z,3.85
2022-08-27T09:55:39.604Z,3.75
2022-08-27T09:58:20.455Z,3.88
2022-08-27T10:00:50.352Z,3.70
2022-08-27T10:03:27.958Z,3.90
2022-08-27T10:05:59.148Z,3.78
2022-08-27T10:08:32.469Z,3.65
2022-08-27T10:11:08.293Z,4.20
2022-08-27T10:13:54.188Z,3.42
2022-08-27T10:16:37.950Z,4.10
2022-08-27T10:19:18.118Z,3.90
2022-08-27T10:21:52.881Z,4.22
2022-08-27T10:24:30.466Z,4.07
2022-08-27T10:27:12.538Z,4.47
2022-08-27T10:29:50.326Z,4.28
2022-08-27T10:32:46.464Z,4.10
2022-08-27T10:35:25.260Z,4.05
2022-08-27T10:38:12.138Z,4.13
2022-08-27T10:40:47.246Z,4.70
2022-08-27T10:43:39.939Z,4.07
2022-08-27T10:46:30.190Z,5.03
2022-08-27T10:49:06.186Z,5.38
2022-08-27T10:51:43.160Z,5.35
2022-08-27T10:54:22.841Z,5.15
2022-08-27T10:57:22.794Z,4.75
2022-08-27T10:59:54.817Z,5.68
2022-08-27T11:02:33.527Z,4.82
2022-08-27T11:05:08.048Z,5.07
2022-08-27T11:07:39.915Z,4.78
2022-08-27T11:10:21.115Z,4.47
2022-08-27T11:12:51.960Z,5.00
2022-08-27T11:15:26.673Z,4.32
2022-08-27T11:18:07.736Z,4.63
2022-08-27T11:20:42.473Z,4.38
2022-08-27T11:23:19.186Z,4.35
2022-08-27T11:25:53.126Z,4.45
2022-08-27T11:28:29.925Z,5.18
2022-08-27T11:31:05.410Z,4.70
2022-08-27T11:33:46.007Z,4.47
2022-08-27T11:36:31.447Z,5.95
2022-08-27T11:39:05.989Z,4.40
2022-08-27T11:41:56.439Z,5.20
2022-08-27T11:44:27.578Z,4.40
2022-08-27T11:46:59.334Z,4.60
2022-08-27T11:49:35.652Z,4.30
2022-08-27T11:52:07.454Z,4.32
2022-08-27T11:54:48.520Z,4.50
2022-08-27T11:57:28.388Z,5.32
2022-08-27T11:59:56.649Z,4.60
2022-08-27T12:02:27.965Z,4.22
2022-08-27T12:05:10.461Z,3.90
2022-08-27T12:07:41.297Z,3.95
2022-08-27T12:10:36.649Z,4.03
2022-08-27T12:13:19.095Z,4.72
2022-08-27T12:15:58.565Z,3.97
2022-08-27T12:18:42.312Z,4.28
2022-08-27T12:21:21.634Z,4.47
2022-08-27T12:24:08.542Z,3.88
2022-08-27T12:26:39.387Z,3.60
2022-08-27T12:29:31.833Z,4.40
2022-08-27T12:32:25.036Z,3.88
2022-08-27T12:35:03.174Z,3.95
2022-08-27T12:37:38.353Z,4.45
2022-08-27T12:40:19.851Z,3.95
2022-08-27T12:42:53.132Z,4.13
2022-08-27T12:45:25.102Z,3.97
2022-08-27T12:47:57.058Z,3.88
2022-08-27T12:50:31.230Z,3.97
2022-08-27T12:53:15.546Z,3.85
2022-08-27T12:55:59.848Z,3.72
2022-08-27T12:58:39.174Z,3.90
2022-08-27T13:01:22.584Z,3.55
2022-08-27T13:03:54.436Z,3.40
2022-08-27T13:06:27.760Z,2.72
2022-08-27T13:08:59.488Z,3.13
2022-08-27T13:11:31.481Z,3.35
2022-08-27T13:14:10.026Z,3.55
2022-08-27T13:16:44.081Z,3.30
2022-08-27T13:19:19.757Z,4.30
2022-08-27T13:21:51.352Z,2.92
2022-08-27T13:24:30.566Z,3.45
2022-08-27T13:26:59.523Z,3.10
2022-08-27T13:29:29.000Z,2.83
2022-08-27T13:31:58.596Z,3.05
2022-08-27T13:34:31.662Z,3.03
2022-08-27T13:37:04.412Z,3.50
2022-08-27T13:39:36.197Z,3.20
2022-08-27T13:42:08.606Z,2.85
2022-08-27T13:44:40.563Z,3.00
2022-08-27T13:47:16.027Z,3.25
2022-08-27T13:49:45.058Z,3.53
2022-08-27T13:52:26.001Z,2.95
2022-08-27T13:55:05.921Z,2.88
2022-08-27T13:57:43.459Z,3.30
2022-08-27T14:00:15.470Z,3.35
2022-08-27T14:02:56.375Z,3.60
2022-08-27T14:05:34.827Z,3.47
2022-08-27T14:08:13.343Z,3.50
2022-08-27T14:10:47.523Z,3.38
2022-08-27T14:13:27.183Z,3.70
2022-08-27T14:16:00.328Z,3.55
2022-08-27T14:18:55.482Z,3.20
2022-08-27T14:21:20.580Z,3.50
2022-08-27T14:23:50.542Z,3.00
2022-08-27T14:26:21.766Z,3.42
2022-08-27T14:28:51.630Z,3.67
2022-08-27T14:31:23.958Z,3.30
2022-08-27T14:33:55.680Z,3.08
2022-08-27T14:36:25.740Z,3.20
2022-08-27T14:38:55.490Z,3.03
2022-08-27T14:41:26.299Z,3.58
2022-08-27T14:43:56.182Z,2.92
2022-08-27T14:46:31.474Z,3.30
2022-08-27T14:49:03.733Z,2.90
2022-08-27T14:51:36.109Z,2.97
2022-08-27T14:54:04.783Z,3.67
2022-08-27T14:56:34.894Z,3.90
2022-08-27T14:59:04.390Z,3.55
2022-08-27T15:01:36.088Z,3.70
2022-08-27T15:04:05.807Z,3.65
2022-08-27T15:06:35.144Z,3.20
2022-08-27T15:09:03.559Z,2.85
2022-08-27T15:11:35.963Z,2.95
2022-08-27T15:14:10.888Z,3.30
2022-08-27T15:16:43.724Z,3.22
2022-08-27T15:19:15.474Z,2.95
2022-08-27T15:21:46.698Z,3.42
2022-08-27T15:24:22.774Z,2.88
2022-08-27T15:26:54.024Z,3.38
2022-08-27T15:29:23.067Z,3.40
2022-08-27T15:31:51.735Z,3.40
2022-08-27T15:34:20.695Z,3.55
2022-08-27T15:36:48.743Z,3.45
2022-08-27T15:39:17.204Z,3.40
2022-08-27T15:42:05.092Z,3.50
2022-08-27T15:44:40.764Z,3.15
2022-08-27T15:47:09.242Z,3.30
2022-08-27T15:49:38.786Z,3.22
2022-08-27T15:52:07.508Z,3.30
2022-08-27T15:54:38.167Z,4.85
2022-08-27T15:57:08.928Z,4.28
2022-08-27T15:59:40.194Z,3.85
2022-08-27T16:02:15.778Z,3.53
2022-08-27T16:04:44.720Z,2.92
2022-08-27T16:07:22.400Z,3.70
2022-08-27T16:09:50.807Z,2.95
2022-08-27T16:12:26.900Z,3.28
2022-08-27T16:14:57.243Z,4.55
2022-08-27T16:17:27.055Z,3.72
2022-08-27T16:19:56.193Z,3.08
2022-08-27T16:22:26.358Z,3.67
2022-08-27T16:24:57.060Z,3.00
2022-08-27T16:27:27.943Z,3.30
2022-08-27T16:29:58.659Z,3.97
2022-08-27T16:32:29.429Z,4.35
2022-08-27T16:34:58.103Z,4.13
2022-08-27T16:37:31.656Z,3.88
2022-08-27T16:40:00.739Z,3.90
2022-08-27T16:42:30.483Z,4.20
2022-08-27T16:45:00.989Z,3.60
2022-08-27T16:47:33.373Z,3.88
2022-08-27T16:50:24.104Z,3.60
2022-08-27T16:52:55.514Z,3.20
2022-08-27T16:55:25.809Z,3.20
2022-08-27T16:57:54.601Z,4.13
2022-08-27T17:00:25.026Z,3.45
2022-08-27T17:02:55.657Z,3.83
2022-08-27T17:05:33.955Z,3.65
2022-08-27T17:08:03.287Z,3.53
2022-08-27T17:10:35.908Z,3.45
2022-08-27T17:13:04.617Z,4.18
2022-08-27T17:15:35.241Z,4.13
2022-08-27T17:18:04.135Z,4.10
2022-08-27T17:20:36.131Z,3.40
2022-08-27T17:23:09.635Z,3.53
2022-08-27T17:25:37.975Z,3.57
2022-08-27T17:28:06.679Z,4.18
2022-08-27T17:30:39.502Z,4.10
2022-08-27T17:33:08.598Z,3.30
2022-08-27T17:35:37.052Z,3.28
2022-08-27T17:38:05.904Z,3.47
2022-08-27T17:40:34.232Z,3.20
2022-08-27T17:43:02.975Z,3.30
2022-08-27T17:45:32.409Z,3.50
2022-08-27T17:48:12.123Z,3.27
2022-08-27T17:50:44.960Z,3.60
2022-08-27T17:53:13.483Z,4.17
2022-08-27T17:55:42.798Z,3.23
2022-08-27T17:58:11.376Z,3.10
2022-08-27T18:00:41.686Z,3.20
2022-08-27T18:03:17.872Z,3.60
2022-08-27T18:05:51.204Z,3.10
2022-08-27T18:08:21.816Z,3.40
2022-08-27T18:10:51.817Z,2.90
2022-08-27T18:13:20.658Z,3.40
2022-08-27T18:15:50.626Z,3.60
2022-08-27T18:18:22.980Z,3.57
2022-08-27T18:20:51.627Z,3.30
2022-08-27T18:23:23.392Z,3.60
2022-08-27T18:25:54.594Z,3.47
2022-08-27T18:28:23.362Z,3.20
2022-08-27T18:30:52.860Z,3.50
2022-08-27T18:33:26.992Z,3.43
2022-08-27T18:35:55.724Z,3.20
2022-08-27T18:38:24.912Z,3.10
2022-08-27T18:40:53.774Z,4.20
2022-08-27T18:43:35.042Z,3.73
2022-08-27T18:46:05.470Z,3.57
2022-08-27T18:48:36.081Z,6.00
2022-08-27T18:51:09.343Z,3.90
2022-08-27T18:53:42.020Z,3.13
2022-08-27T18:56:17.637Z,3.03
2022-08-27T18:58:48.988Z,3.50
2022-08-27T19:01:24.454Z,3.93
2022-08-27T19:03:59.717Z,4.30
2022-08-27T19:06:28.804Z,4.73
2022-08-27T19:08:59.458Z,3.93
2022-08-27T19:11:29.972Z,3.70
2022-08-27T19:13:58.421Z,3.23
2022-08-27T19:16:39.410Z,3.50
2022-08-27T19:19:15.418Z,3.50
2022-08-27T19:21:50.687Z,3.30
2022-08-27T19:24:20.345Z,4.07
2022-08-27T19:26:49.546Z,5.00
2022-08-27T19:29:18.475Z,3.47
2022-08-27T19:31:49.016Z,3.40
2022-08-27T19:34:20.235Z,3.10
2022-08-27T19:36:48.501Z,4.00
2022-08-27T19:39:16.931Z,3.60
2022-08-27T19:41:45.287Z,3.70
2022-08-27T19:44:13.825Z,4.33
2022-08-27T19:46:42.692Z,4.60
2022-08-27T19:49:13.552Z,3.43
2022-08-27T19:51:45.700Z,3.30
2022-08-27T19:54:14.747Z,2.93
2022-08-27T19:56:42.920Z,3.50
2022-08-27T19:59:21.339Z,3.67
2022-08-27T20:01:50.409Z,3.00
2022-08-27T20:04:19.201Z,3.60
2022-08-27T20:06:53.244Z,2.97
2022-08-27T20:09:22.547Z,2.90
2022-08-27T20:11:51.046Z,3.70
2022-08-27T20:14:20.267Z,3.10
2022-08-27T20:16:52.094Z,4.07
2022-08-27T20:19:23.325Z,3.53
2022-08-27T20:21:55.776Z,3.17
2022-08-27T20:24:25.539Z,3.30
2022-08-27T20:26:59.785Z,3.30
2022-08-27T20:29:32.441Z,3.27
2022-08-27T20:32:01.660Z,3.60
2022-08-27T20:34:32.642Z,3.43
2022-08-27T20:37:05.904Z,3.23
2022-08-27T20:39:34.676Z,3.17
2022-08-27T20:42:03.652Z,3.33
2022-08-27T20:44:33.244Z,3.07
2022-08-27T20:47:05.266Z,3.00
2022-08-27T20:49:35.530Z,3.40
2022-08-27T20:52:08.599Z,3.50
2022-08-27T20:54:39.496Z,4.03
2022-08-27T20:57:08.970Z,3.43
2022-08-27T20:59:54.901Z,4.20
2022-08-27T21:02:26.237Z,4.17
2022-08-27T21:04:55.081Z,3.73
2022-08-27T21:07:28.660Z,3.63
2022-08-27T21:09:57.707Z,3.03
2022-08-27T21:12:27.949Z,4.27
2022-08-27T21:14:58.028Z,3.30
2022-08-27T21:17:29.120Z,4.77
2022-08-27T21:19:58.304Z,3.37
2022-08-27T21:22:32.080Z,4.23
2022-08-27T21:25:00.834Z,3.47
2022-08-27T21:27:29.336Z,3.80
2022-08-27T21:29:59.664Z,3.80
2022-08-27T21:32:30.504Z,3.20
2022-08-27T21:34:58.716Z,3.10
2022-08-27T21:37:29.052Z,3.83
2022-08-27T21:39:58.732Z,3.43
2022-08-27T21:42:27.700Z,3.23
2022-08-27T21:44:56.069Z,3.33
2022-08-27T21:47:24.945Z,3.67
2022-08-27T21:49:54.225Z,3.47
2022-08-27T21:52:24.015Z,3.40
2022-08-27T21:54:53.890Z,4.10
2022-08-27T21:57:22.424Z,3.50
2022-08-27T21:59:51.952Z,4.13
2022-08-27T22:02:39.431Z,3.33
2022-08-27T22:05:09.856Z,3.60
2022-08-27T22:07:39.568Z,3.63
2022-08-27T22:10:10.396Z,3.60
2022-08-27T22:12:38.593Z,3.70
2022-08-27T22:15:09.872Z,3.70
2022-08-27T22:17:38.404Z,4.00
2022-08-27T22:20:09.956Z,3.60
2022-08-27T22:22:38.880Z,3.63
2022-08-27T22:25:12.656Z,3.63
2022-08-27T22:27:42.067Z,3.73
2022-08-27T22:30:12.877Z,3.60
2022-08-27T22:32:42.432Z,3.43
2022-08-27T22:35:12.052Z,3.80
2022-08-27T22:37:40.633Z,3.83
2022-08-27T22:40:19.272Z,3.00
2022-08-27T22:42:48.824Z,3.03
2022-08-27T22:45:17.584Z,3.30
2022-08-27T22:47:46.159Z,3.03
2022-08-27T22:50:15.143Z,3.33
2022-08-27T22:52:44.004Z,3.37
2022-08-27T22:55:18.852Z,3.87
2022-08-27T22:57:48.091Z,3.40
2022-08-27T23:00:22.262Z,3.43
2022-08-27T23:02:51.042Z,3.43
2022-08-27T23:05:19.914Z,3.50
2022-08-27T23:07:49.426Z,3.50
2022-08-27T23:10:25.486Z,3.40
2022-08-27T23:12:54.890Z,3.30
2022-08-27T23:15:26.191Z,3.30
2022-08-27T23:17:55.344Z,3.70
2022-08-27T23:20:29.374Z,3.27
2022-08-27T23:22:58.771Z,3.53
2022-08-27T23:25:46.345Z,3.10
2022-08-27T23:28:15.950Z,3.20
2022-08-27T23:30:45.920Z,3.03
2022-08-27T23:33:15.854Z,3.37
2022-08-27T23:35:48.266Z,3.20
2022-08-27T23:38:17.433Z,3.30
2022-08-27T23:40:48.656Z,3.70
2022-08-27T23:43:17.831Z,3.20
2022-08-27T23:45:46.045Z,3.37
2022-08-27T23:48:15.234Z,3.50
2022-08-27T23:50:44.322Z,3.67
2022-08-27T23:53:13.400Z,3.40
2022-08-27T23:55:41.873Z,3.57
2022-08-27T23:58:13.589Z,3.47
